This is the latest recevied weather packets stored in our database for station/object JH5HTX-13. If no packets are shown the sender has not sent any weather packets the latest 10 day(s).
| Time | Temp. | Humidity | Pressure | Rain* | Wind** | Luminosity | Snow |
|---|---|---|---|---|---|---|---|
| 1777870650 | 17.78° C | 62% | 1009.4 hPa | 0 mm | - | - | - |
| 1777869750 | 17.78° C | 61% | 1009.1 hPa | 0 mm | - | - | - |
| 1777868850 | 18.33° C | 61% | 1009.1 hPa | 0 mm | - | - | - |
| 1777867950 | 18.89° C | 61% | 1009 hPa | 0 mm | - | - | - |
| 1777867050 | 19.44° C | 59% | 1008.8 hPa | 0 mm | - | - | - |
| 1777866150 | 18.89° C | 60% | 1008.8 hPa | 0 mm | - | - | - |
| 1777864350 | 18.33° C | 61% | 1008.6 hPa | 0 mm | - | - | - |
| 1777845447 | 17.22° C | 74% | 1005.8 hPa | 0 mm | - | - | - |
| 1777843647 | 17.22° C | 76% | 1005.6 hPa | 0 mm | - | - | - |
| 1777842747 | 16.67° C | 77% | 1005.5 hPa | 0 mm | - | - | - |
| 1777841847 | 16.67° C | 76% | 1004.6 hPa | 0 mm | - | - | - |
| 1777840047 | 16.67° C | 78% | 1004.4 hPa | 0 mm | - | - | - |
| 1777839147 | 16.67° C | 78% | 1004.3 hPa | 0 mm | - | - | - |
| 1777836446 | 16.67° C | 76% | 1003.9 hPa | 0 mm | - | - | - |
| 1777835546 | 16.67° C | 78% | 1003.8 hPa | 0 mm | - | - | - |
| 1777834646 | 16.67° C | 81% | 1003.6 hPa | 0 mm | - | - | - |
| 1777832846 | 16.67° C | 85% | 1003.6 hPa | 0 mm | - | - | - |
| 1777831946 | 16.67° C | 87% | 1003.4 hPa | 0 mm | - | - | - |
| 1777831046 | 16.67° C | 87% | 1002.9 hPa | 0 mm | - | - | - |
| 1777830146 | 16.67° C | 88% | 1002.5 hPa | 0 mm | - | - | - |
| 1777825645 | 17.22° C | 94% | 1002.1 hPa | 0 mm | - | - | - |
| 1777823845 | 17.22° C | 94% | 1002.1 hPa | 0 mm | - | - | - |
| 1777822044 | 17.22° C | 94% | 1002.1 hPa | 0 mm | - | - | - |
| 1777821145 | 17.22° C | 94% | 1002.1 hPa | 0 mm | - | - | - |
| 1777818444 | 17.78° C | 95% | 1002.1 hPa | 0 mm | - | - | - |
* Rain latest hour (hover to see other rain measurements)
** Current wind speed in m/s (hover to see current wind gust speed)